Youngstown, Missouri
Current Conditions -  °F | °C
As of 4:55 PM on Monday 22 Dec 2014 (Local Time) from KIRK Reporting Station
Haze Haze  
Wind Chill: 38°   Ceiling: 300
Heat Index: 43°   Visibility: 2.5mi
Dew Point: 43°   Wind: 9mph
Humidity: 100%   Direction: 110°ESE
Pressure: 29.47"   Gusts: NA
Location:  40.2969°N, 92.7524°W
Report Text: KIRK 222255Z AUTO 11008KT 2 1/2SM BR OVC003 06/06 A2947 RMK AO2 RAE52 SLP986 P0001 T00610061
Loading
Personal Weather Stations






























Interactive Weather Map New forecast layout! Learn more

10-Day Weather Forecast

Advertisements
Track Severe Weather on mobile